Terminal Aerodrome Forecast
Issued by NWS Cleveland, OH

Home | Current Version | Previous Version | Graphics & Text | Print | Product List | Glossary On
Versions: 1 2 3 4 5 6 7 8 9 10 11 12 13 14 15 16 17 18 19 20 21
000
FTUS41 KCLE 302335
TAFTOL
TAF
KTOL 302335Z 3100/3124 20004KT P6SM BKN120
     FM310100 20004KT P6SM VCTS BKN040CB OVC120
      TEMPO 3101/3104 3SM -TSRA BKN025CB
     FM310400 24006KT P6SM VCSH OVC025
     FM311000 27006KT 5SM -SHRA OVC025
     FM311500 34008KT P6SM OVC035=

USA.gov is the U.S. government's official web portal to all federal, state and local government web resources and services.